Time;durP1;ratioP1;P1;durP2;ratioP2;P2;SDS_P1;SDS_P2;PMS_P1;PMS_P2;Temp;Humidity;BMP_temperature;BMP_pressure;BME280_temperature;BME280_humidity;BME280_pressure;Samples;Min_cycle;Max_cycle;Signal;HPM_P1;HPM_P2
2021/09/24 00:01:41;;;;;;;5.37;4.03;;;11.80;99.90;;;;;;6087614;23;20696;-84
2021/09/24 00:04:30;;;;;;;5.40;4.90;;;11.80;99.90;;;;;;6086916;23;20586;-83
2021/09/24 00:07:17;;;;;;;6.80;5.00;;;11.80;99.90;;;;;;6087116;23;20580;-84
2021/09/24 00:10:04;;;;;;;4.13;3.73;;;11.70;99.90;;;;;;6087929;23;20636;-83
2021/09/24 00:12:51;;;;;;;5.17;4.60;;;11.60;99.90;;;;;;6088125;23;20623;-84
2021/09/24 00:15:40;;;;;;;5.47;4.97;;;11.60;99.90;;;;;;6087416;23;21176;-83
2021/09/24 00:18:27;;;;;;;5.13;4.50;;;11.50;99.90;;;;;;6087502;23;21204;-83
2021/09/24 00:21:14;;;;;;;5.17;4.67;;;11.50;99.90;;;;;;6080275;23;20638;-84
2021/09/24 00:24:01;;;;;;;4.83;4.37;;;11.50;99.90;;;;;;6089018;23;20591;-83
2021/09/24 00:26:48;;;;;;;5.73;5.23;;;11.40;99.90;;;;;;6087606;23;21119;-83
2021/09/24 00:29:34;;;;;;;4.87;4.17;;;11.30;99.90;;;;;;6087671;23;20714;-83
2021/09/24 00:32:23;;;;;;;5.70;5.10;;;11.30;99.90;;;;;;6089016;23;20674;-83
2021/09/24 00:35:10;;;;;;;8.83;4.80;;;11.30;99.90;;;;;;6087662;23;20590;-83
2021/09/24 00:37:57;;;;;;;5.73;5.23;;;11.30;99.90;;;;;;6087523;23;20869;-83
2021/09/24 00:40:44;;;;;;;5.37;4.87;;;11.30;99.90;;;;;;6087425;23;20607;-83
2021/09/24 00:43:31;;;;;;;6.10;5.20;;;11.40;99.90;;;;;;6088233;23;20611;-82
2021/09/24 00:46:18;;;;;;;4.87;4.43;;;11.40;99.90;;;;;;6087866;23;20615;-82
2021/09/24 00:49:06;;;;;;;6.43;4.37;;;11.40;99.90;;;;;;6087315;23;20705;-83
2021/09/24 00:51:53;;;;;;;5.47;4.70;;;11.50;99.90;;;;;;6087524;23;20579;-82
2021/09/24 00:54:41;;;;;;;4.90;4.40;;;11.40;99.90;;;;;;6087748;23;20853;-83
2021/09/24 00:57:28;;;;;;;5.67;5.07;;;11.40;99.90;;;;;;6086950;23;20602;-82
2021/09/24 01:00:15;;;;;;;4.87;4.47;;;11.30;99.90;;;;;;6089096;23;20630;-83
2021/09/24 01:03:02;;;;;;;5.90;4.77;;;11.30;99.90;;;;;;6086174;23;20598;-82
2021/09/24 01:05:51;;;;;;;6.33;5.00;;;11.30;99.90;;;;;;6086617;23;21178;-84
2021/09/24 01:08:37;;;;;;;8.07;4.80;;;11.30;99.90;;;;;;6087209;23;20702;-84
2021/09/24 01:11:24;;;;;;;4.63;4.03;;;11.30;99.90;;;;;;6087607;23;20662;-84
2021/09/24 01:14:12;;;;;;;5.33;4.83;;;11.20;99.90;;;;;;6087845;23;20610;-84
2021/09/24 01:17:00;;;;;;;5.33;4.83;;;11.20;99.90;;;;;;6088397;23;20971;-83
2021/09/24 01:19:47;;;;;;;5.07;4.57;;;11.10;99.90;;;;;;6089163;23;20589;-83
2021/09/24 01:22:36;;;;;;;5.40;4.90;;;11.00;99.90;;;;;;6088773;23;20697;-83
2021/09/24 01:25:24;;;;;;;4.63;4.10;;;11.00;99.90;;;;;;6089359;23;20610;-83
2021/09/24 01:28:11;;;;;;;6.07;5.37;;;11.00;99.90;;;;;;6088255;23;20662;-84
2021/09/24 01:30:57;;;;;;;6.50;5.90;;;11.10;99.90;;;;;;6082361;23;20730;-83
2021/09/24 01:33:45;;;;;;;5.57;4.87;;;11.10;99.90;;;;;;6088497;23;20670;-83
2021/09/24 01:36:32;;;;;;;6.70;4.50;;;11.10;99.90;;;;;;6088028;23;20658;-83
2021/09/24 01:39:20;;;;;;;6.33;4.37;;;11.10;99.90;;;;;;6088763;23;20665;-83
2021/09/24 01:42:07;;;;;;;5.70;4.50;;;11.00;99.90;;;;;;6089088;23;20602;-83
2021/09/24 01:44:54;;;;;;;5.27;4.77;;;10.80;99.90;;;;;;6089019;23;20685;-83
2021/09/24 01:47:42;;;;;;;5.87;5.27;;;10.90;99.90;;;;;;6087369;23;20605;-84
2021/09/24 01:50:29;;;;;;;5.60;5.00;;;10.80;99.90;;;;;;6089263;23;20635;-84
2021/09/24 01:53:16;;;;;;;7.97;5.40;;;10.80;99.90;;;;;;6088955;23;20602;-83
2021/09/24 01:56:05;;;;;;;5.77;5.07;;;10.80;99.90;;;;;;6089011;23;20579;-83
2021/09/24 01:58:51;;;;;;;4.40;4.00;;;10.70;99.90;;;;;;6089919;23;20615;-83
2021/09/24 02:01:38;;;;;;;5.13;4.60;;;10.80;99.90;;;;;;6089015;23;20679;-83
2021/09/24 02:04:25;;;;;;;6.43;4.80;;;10.80;99.90;;;;;;6088328;23;20954;-83
2021/09/24 02:07:12;;;;;;;8.40;5.23;;;10.70;99.90;;;;;;6087949;23;20595;-83
2021/09/24 02:09:59;;;;;;;6.43;4.63;;;10.70;99.90;;;;;;6089006;23;20598;-83
2021/09/24 02:12:48;;;;;;;5.90;5.30;;;10.70;99.90;;;;;;6088979;23;20652;-83
2021/09/24 02:15:35;;;;;;;6.73;4.90;;;10.70;99.90;;;;;;6088928;23;20610;-83
2021/09/24 02:18:21;;;;;;;6.10;5.50;;;10.70;99.90;;;;;;6088246;23;20610;-82
2021/09/24 02:21:09;;;;;;;5.20;4.70;;;10.70;99.90;;;;;;6089323;23;21330;-83
2021/09/24 02:23:56;;;;;;;6.53;5.83;;;10.70;99.90;;;;;;6089086;23;20567;-83
2021/09/24 02:26:43;;;;;;;6.90;5.63;;;10.70;99.90;;;;;;6087520;23;20665;-83
2021/09/24 02:29:32;;;;;;;5.63;5.00;;;10.60;99.90;;;;;;6088553;23;20692;-83
2021/09/24 02:32:18;;;;;;;6.43;5.83;;;10.60;99.90;;;;;;6089073;23;21055;-83
2021/09/24 02:35:07;;;;;;;8.00;5.23;;;10.60;99.90;;;;;;6088815;23;21084;-83
2021/09/24 02:37:54;;;;;;;6.73;5.20;;;10.70;99.90;;;;;;6089218;23;20590;-83
2021/09/24 02:40:41;;;;;;;6.63;5.27;;;10.60;99.90;;;;;;6081619;23;20642;-83
2021/09/24 02:43:28;;;;;;;5.93;5.43;;;10.60;99.90;;;;;;6088848;23;20567;-82
2021/09/24 02:46:16;;;;;;;7.33;6.00;;;10.60;99.90;;;;;;6088804;23;21219;-83
2021/09/24 02:49:03;;;;;;;6.13;5.37;;;10.50;99.90;;;;;;6089887;23;20626;-83
2021/09/24 02:51:50;;;;;;;6.60;5.53;;;10.50;99.90;;;;;;6088624;23;21203;-83
2021/09/24 02:54:37;;;;;;;6.00;5.30;;;10.50;99.90;;;;;;6088869;23;21272;-82
2021/09/24 02:57:24;;;;;;;6.80;5.83;;;10.60;99.90;;;;;;6088072;23;20613;-82
2021/09/24 03:00:12;;;;;;;4.90;4.20;;;10.50;99.90;;;;;;6088708;23;20629;-83
2021/09/24 03:03:00;;;;;;;7.93;5.07;;;10.50;99.90;;;;;;6088801;23;20563;-82
2021/09/24 03:05:47;;;;;;;5.63;4.93;;;10.60;99.90;;;;;;6088607;23;20611;-82
2021/09/24 03:08:34;;;;;;;7.70;6.50;;;10.60;99.90;;;;;;6087234;23;20678;-83
2021/09/24 03:11:21;;;;;;;7.90;6.40;;;10.70;99.90;;;;;;6088810;23;20555;-83
2021/09/24 03:14:08;;;;;;;7.00;5.87;;;10.60;99.90;;;;;;6088693;23;20625;-82
2021/09/24 03:16:55;;;;;;;7.50;6.30;;;10.60;99.90;;;;;;6087626;23;20905;-82
2021/09/24 03:19:43;;;;;;;8.77;5.53;;;10.60;99.90;;;;;;6089931;23;20982;-82
2021/09/24 03:22:30;;;;;;;7.60;6.53;;;10.50;99.90;;;;;;6088733;23;20717;-82
2021/09/24 03:25:17;;;;;;;8.27;5.93;;;10.60;99.90;;;;;;6087744;23;20609;-82
2021/09/24 03:28:04;;;;;;;8.37;5.77;;;10.60;99.90;;;;;;6089023;23;20641;-82
2021/09/24 03:30:51;;;;;;;6.23;5.63;;;10.60;99.90;;;;;;6089937;23;20721;-82
2021/09/24 03:33:38;;;;;;;7.13;5.50;;;10.70;99.90;;;;;;6088323;23;20579;-82
2021/09/24 03:36:26;;;;;;;9.07;6.30;;;10.80;99.90;;;;;;6088083;23;20654;-81
2021/09/24 03:39:14;;;;;;;6.83;5.70;;;10.80;99.90;;;;;;6088159;23;20563;-82
2021/09/24 03:42:01;;;;;;;7.20;6.37;;;11.40;99.90;;;;;;6088217;23;20611;-82
2021/09/24 03:44:48;;;;;;;8.33;6.53;;;10.90;99.90;;;;;;6088428;23;20598;-82
2021/09/24 03:47:35;;;;;;;6.20;5.60;;;10.90;99.90;;;;;;6086980;23;20605;-81
2021/09/24 03:50:24;;;;;;;8.10;6.67;;;10.90;99.90;;;;;;6080424;23;20726;-81
2021/09/24 03:53:12;;;;;;;13.77;8.50;;;11.00;99.90;;;;;;6088388;23;20973;-81
2021/09/24 03:55:59;;;;;;;6.90;6.20;;;11.00;99.90;;;;;;6088008;23;20641;-81
2021/09/24 03:58:45;;;;;;;7.23;5.67;;;10.80;99.90;;;;;;6088055;23;20697;-82
2021/09/24 04:01:32;;;;;;;7.17;6.27;;;10.90;99.90;;;;;;6088406;23;20591;-82
2021/09/24 04:04:19;;;;;;;6.90;5.40;;;10.90;99.90;;;;;;6088452;23;21129;-82
2021/09/24 04:07:06;;;;;;;7.23;5.90;;;10.90;99.90;;;;;;6088660;23;20702;-82
2021/09/24 04:09:54;;;;;;;7.47;6.70;;;10.90;99.90;;;;;;6088042;23;20618;-81
2021/09/24 04:12:41;;;;;;;6.87;6.10;;;10.90;99.90;;;;;;6089584;23;20599;-82
2021/09/24 04:15:28;;;;;;;6.90;5.83;;;10.80;99.90;;;;;;6088042;23;21112;-81
2021/09/24 04:18:15;;;;;;;8.73;6.80;;;10.60;99.90;;;;;;6087778;23;20618;-82
2021/09/24 04:21:02;;;;;;;6.10;5.50;;;10.70;99.90;;;;;;6088214;23;20630;-82
2021/09/24 04:23:49;;;;;;;7.60;6.27;;;10.70;99.90;;;;;;6088111;23;20661;-82
2021/09/24 04:26:37;;;;;;;7.70;4.97;;;10.60;99.90;;;;;;6087198;23;20570;-81
2021/09/24 04:29:24;;;;;;;6.57;5.60;;;10.60;99.90;;;;;;6088108;23;20597;-82
2021/09/24 04:32:11;;;;;;;6.50;5.67;;;10.60;99.90;;;;;;6088171;23;20634;-81
2021/09/24 04:34:58;;;;;;;6.50;5.90;;;10.40;99.90;;;;;;6089307;23;20631;-81
2021/09/24 04:37:45;;;;;;;6.00;5.43;;;10.40;99.90;;;;;;6087476;23;20657;-82
2021/09/24 04:40:32;;;;;;;10.10;6.83;;;10.40;99.90;;;;;;6088014;23;20667;-81
2021/09/24 04:43:21;;;;;;;8.07;6.53;;;10.30;99.90;;;;;;6088119;23;20599;-82
2021/09/24 04:46:07;;;;;;;5.80;5.17;;;10.30;99.90;;;;;;6088322;23;20621;-81
2021/09/24 04:48:55;;;;;;;6.50;5.33;;;10.30;99.90;;;;;;6087167;23;20682;-81
2021/09/24 04:51:42;;;;;;;9.70;6.60;;;10.30;99.90;;;;;;6090481;23;20690;-81
2021/09/24 04:54:29;;;;;;;7.43;6.13;;;10.30;99.90;;;;;;6089093;23;20570;-81
2021/09/24 04:57:16;;;;;;;6.37;5.50;;;10.30;99.90;;;;;;6088336;23;20609;-81
2021/09/24 05:00:06;;;;;;;6.83;5.70;;;10.30;99.90;;;;;;6089439;23;20657;-81
2021/09/24 05:02:53;;;;;;;8.93;5.97;;;10.20;99.90;;;;;;6088805;23;20602;-81
2021/09/24 05:05:40;;;;;;;7.63;6.50;;;10.30;99.90;;;;;;6087977;23;20571;-82
2021/09/24 05:08:26;;;;;;;9.97;5.80;;;10.30;99.90;;;;;;6082160;23;20678;-81
2021/09/24 05:11:13;;;;;;;7.73;6.93;;;10.20;99.90;;;;;;6087154;23;20709;-81
2021/09/24 05:14:00;;;;;;;8.57;6.57;;;10.20;99.90;;;;;;6086516;23;20615;-81
2021/09/24 05:16:49;;;;;;;8.10;5.63;;;10.10;99.90;;;;;;6088420;23;20603;-81
2021/09/24 05:19:35;;;;;;;11.43;6.30;;;10.30;99.90;;;;;;6084591;23;21338;-81
2021/09/24 05:22:22;;;;;;;8.70;7.00;;;10.30;99.90;;;;;;6089472;23;20575;-81
2021/09/24 05:25:11;;;;;;;8.90;6.40;;;10.30;99.90;;;;;;6090219;23;21197;-81
2021/09/24 05:27:58;;;;;;;7.57;6.27;;;10.30;99.90;;;;;;6089445;23;20630;-81
2021/09/24 05:30:45;;;;;;;6.73;5.70;;;10.30;99.90;;;;;;6089309;23;20710;-81
2021/09/24 05:33:33;;;;;;;7.93;6.83;;;10.30;99.90;;;;;;6089122;23;20681;-80
2021/09/24 05:36:20;;;;;;;10.00;6.43;;;10.30;99.90;;;;;;6088863;23;21151;-81
2021/09/24 05:39:07;;;;;;;8.43;6.70;;;10.40;99.90;;;;;;6089104;23;21168;-81
2021/09/24 05:41:54;;;;;;;7.20;5.43;;;10.40;99.90;;;;;;6088371;23;20574;-81
2021/09/24 05:44:41;;;;;;;8.37;5.97;;;10.50;99.90;;;;;;6090212;23;20558;-81
2021/09/24 05:47:28;;;;;;;10.00;6.43;;;10.50;99.90;;;;;;6086395;23;21205;-81
2021/09/24 05:50:17;;;;;;;9.47;6.67;;;10.50;99.90;;;;;;6088495;23;20633;-81
2021/09/24 05:53:04;;;;;;;11.47;6.70;;;10.60;99.90;;;;;;6088473;23;20590;-81
2021/09/24 05:55:50;;;;;;;10.47;6.93;;;10.60;99.90;;;;;;6088428;23;20567;-81
2021/09/24 05:58:37;;;;;;;9.40;5.70;;;10.70;99.90;;;;;;6073561;23;20710;-81
2021/09/24 06:01:25;;;;;;;7.63;6.30;;;10.70;99.90;;;;;;6088140;23;20590;-81
2021/09/24 06:04:12;;;;;;;7.27;6.47;;;10.70;99.90;;;;;;6086605;23;20575;-81
2021/09/24 06:07:00;;;;;;;10.00;6.07;;;10.70;99.90;;;;;;6088778;23;20613;-81
2021/09/24 06:09:47;;;;;;;7.20;6.47;;;10.70;99.90;;;;;;6088667;23;20566;-81
2021/09/24 06:12:39;;;;;;;8.80;7.57;;;10.80;99.90;;;;;;6088930;23;20661;-80
2021/09/24 06:15:27;;;;;;;8.77;6.67;;;10.90;99.90;;;;;;6089095;23;20763;-81
2021/09/24 06:18:17;;;;;;;10.53;6.83;;;10.90;99.90;;;;;;6108837;23;20665;-81
2021/09/24 06:21:04;;;;;;;6.93;5.90;;;11.00;99.90;;;;;;6088835;23;20586;-81
2021/09/24 06:23:53;;;;;;;11.93;7.77;;;11.10;99.90;;;;;;6089274;23;20968;-81
2021/09/24 06:26:40;;;;;;;8.97;6.90;;;11.20;99.90;;;;;;6088421;23;20583;-81
2021/09/24 06:29:30;;;;;;;9.50;7.20;;;11.30;99.90;;;;;;6089243;23;20587;-81
2021/09/24 06:32:19;;;;;;;8.40;6.30;;;11.40;99.90;;;;;;6089330;23;20602;-81
2021/09/24 06:35:07;;;;;;;8.63;6.87;;;11.50;99.90;;;;;;6088390;23;20603;-81
2021/09/24 06:37:54;;;;;;;8.33;7.10;;;11.60;99.90;;;;;;6085591;23;20619;-81
2021/09/24 06:40:43;;;;;;;13.53;7.67;;;11.70;99.90;;;;;;6088380;23;21384;-81
2021/09/24 06:43:30;;;;;;;7.93;6.97;;;11.80;99.90;;;;;;6088564;23;20615;-81
2021/09/24 06:46:11;;;;;;;14.17;7.20;;;11.90;99.90;;;;;;6091044;23;20537;-81
2021/09/24 06:48:56;;;;;;;12.57;6.90;;;12.00;99.90;;;;;;6089797;22;21181;-81
2021/09/24 06:51:43;;;;;;;8.47;6.07;;;12.20;99.90;;;;;;6089952;23;20639;-81
2021/09/24 06:54:18;;;;;;;9.17;6.23;;;12.30;99.90;;;;;;6090116;22;20593;-81
2021/09/24 06:57:06;;;;;;;9.23;7.00;;;12.50;99.90;;;;;;6088718;23;20611;-81
2021/09/24 06:59:53;;;;;;;7.37;6.63;;;12.60;99.90;;;;;;6089772;23;20596;-81
2021/09/24 07:02:40;;;;;;;6.93;6.00;;;12.70;99.90;;;;;;6090031;23;20578;-81
2021/09/24 07:05:24;;;;;;;8.20;7.37;;;12.80;99.90;;;;;;6089835;22;20592;-81
2021/09/24 07:08:11;;;;;;;8.43;7.63;;;12.90;99.90;;;;;;6088166;23;20594;-81
2021/09/24 07:10:49;;;;;;;8.13;7.33;;;13.00;99.90;;;;;;6090030;23;20638;-82
2021/09/24 07:13:35;;;;;;;7.60;6.87;;;13.20;99.90;;;;;;6089900;23;21055;-81
2021/09/24 07:16:20;;;;;;;8.60;6.30;;;13.30;99.90;;;;;;6089750;23;20685;-82
2021/09/24 07:18:51;;;;;;;9.63;7.00;;;13.50;99.90;;;;;;6090284;22;20692;-82
2021/09/24 07:21:36;;;;;;;6.40;5.70;;;13.70;99.90;;;;;;6090112;23;20632;-82
2021/09/24 07:24:21;;;;;;;7.50;5.60;;;13.90;99.90;;;;;;6089880;23;20582;-82
2021/09/24 07:27:04;;;;;;;6.63;5.80;;;14.00;99.90;;;;;;6089879;23;20574;-82
2021/09/24 07:29:44;;;;;;;7.03;6.33;;;14.10;99.90;;;;;;6089683;22;20601;-82
2021/09/24 07:32:24;;;;;;;11.13;5.63;;;14.20;99.90;;;;;;6088068;23;20925;-81
2021/09/24 07:35:08;;;;;;;6.90;6.20;;;14.30;99.90;;;;;;6087023;22;20590;-82
2021/09/24 07:37:38;;;;;;;8.90;7.00;;;14.40;99.90;;;;;;6087322;23;21048;-82
2021/09/24 07:40:13;;;;;;;7.73;6.07;;;14.60;99.90;;;;;;6088841;23;20647;-82
2021/09/24 07:42:55;;;;;;;9.87;6.70;;;14.70;99.90;;;;;;6088303;23;20582;-81
2021/09/24 07:45:36;;;;;;;6.90;5.47;;;14.90;99.90;;;;;;6088870;23;20586;-82
2021/09/24 07:48:24;;;;;;;6.37;5.87;;;14.90;99.90;;;;;;6087287;23;20673;-82
2021/09/24 07:51:01;;;;;;;6.83;6.13;;;15.00;99.90;;;;;;6089678;23;20610;-82
2021/09/24 07:53:36;;;;;;;6.93;6.10;;;15.10;99.90;;;;;;6089156;22;20583;-82
2021/09/24 07:56:15;;;;;;;6.50;5.80;;;15.20;99.90;;;;;;6086722;22;21155;-81
2021/09/24 07:58:55;;;;;;;9.53;6.63;;;15.40;99.90;;;;;;6090044;23;20920;-82
2021/09/24 08:01:36;;;;;;;9.80;6.67;;;15.50;99.90;;;;;;6089659;23;20577;-82
2021/09/24 08:04:12;;;;;;;6.77;6.07;;;15.60;99.90;;;;;;6089409;23;20598;-82
2021/09/24 08:06:45;;;;;;;9.30;5.60;;;15.70;99.90;;;;;;6089068;22;21136;-82
2021/09/24 08:09:20;;;;;;;5.83;5.33;;;15.90;99.90;;;;;;6089384;23;20606;-82
2021/09/24 08:11:57;;;;;;;6.43;4.97;;;16.00;99.90;;;;;;6089733;23;20582;-82
2021/09/24 08:14:37;;;;;;;8.57;6.10;;;16.10;99.90;;;;;;6085094;23;20531;-81
2021/09/24 08:17:19;;;;;;;5.90;5.30;;;16.10;99.90;;;;;;6087400;23;20541;-81
2021/09/24 08:20:07;;;;;;;7.03;5.37;;;16.10;99.60;;;;;;6088237;23;20621;-82
2021/09/24 08:22:54;;;;;;;6.53;5.87;;;16.20;99.70;;;;;;6089382;23;20608;-82
2021/09/24 08:25:24;;;;;;;14.10;6.10;;;16.20;99.50;;;;;;6089821;23;20587;-82
2021/09/24 08:27:56;;;;;;;6.40;5.70;;;16.30;99.50;;;;;;6090196;23;20583;-82
2021/09/24 08:30:27;;;;;;;12.47;6.67;;;16.40;99.50;;;;;;6090172;23;20627;-81
2021/09/24 08:33:14;;;;;;;9.80;6.27;;;16.40;98.20;;;;;;6088937;23;21161;-83
2021/09/24 08:35:45;;;;;;;5.60;5.10;;;16.50;97.70;;;;;;6087588;23;20986;-82
2021/09/24 08:38:15;;;;;;;7.03;6.40;;;16.70;97.30;;;;;;6088124;23;20591;-82
2021/09/24 08:40:47;;;;;;;6.70;6.00;;;16.70;97.00;;;;;;6087244;23;21179;-82
2021/09/24 08:43:34;;;;;;;6.67;5.23;;;16.80;96.60;;;;;;6088268;23;20600;-82
2021/09/24 08:46:04;;;;;;;7.80;6.10;;;16.80;96.30;;;;;;6087258;23;20571;-81
2021/09/24 08:48:47;;;;;;;6.53;5.30;;;16.80;96.30;;;;;;6087761;23;20934;-80
2021/09/24 08:51:17;;;;;;;12.17;6.00;;;17.00;95.70;;;;;;6088056;23;21094;-81
2021/09/24 08:53:57;;;;;;;6.80;6.13;;;16.90;96.00;;;;;;6090608;23;20549;-81
2021/09/24 08:56:39;;;;;;;6.83;6.10;;;16.90;96.00;;;;;;6089390;23;20589;-81
2021/09/24 08:59:09;;;;;;;7.30;5.50;;;16.90;95.70;;;;;;6090750;23;20613;-81
2021/09/24 09:02:02;;;;;;;6.00;5.40;;;17.10;95.60;;;;;;6088449;23;20996;-81
2021/09/24 09:04:37;;;;;;;5.83;5.33;;;17.30;95.90;;;;;;6090172;23;20603;-81
2021/09/24 09:07:11;;;;;;;5.47;5.00;;;17.30;95.40;;;;;;6084251;23;20616;-82
2021/09/24 09:09:52;;;;;;;6.00;5.00;;;17.30;96.20;;;;;;6090104;23;20552;-82
2021/09/24 09:12:28;;;;;;;6.20;5.60;;;17.50;95.80;;;;;;6090429;23;20631;-81
2021/09/24 09:15:02;;;;;;;6.17;5.57;;;17.60;95.50;;;;;;6090560;23;20902;-82
2021/09/24 09:17:45;;;;;;;6.07;5.57;;;17.70;95.30;;;;;;6090383;22;20589;-81
2021/09/24 09:20:23;;;;;;;6.13;5.30;;;17.70;95.70;;;;;;6090109;23;20589;-81
2021/09/24 09:23:09;;;;;;;6.93;5.43;;;17.70;95.60;;;;;;6090668;23;20624;-81
2021/09/24 09:25:47;;;;;;;6.13;5.57;;;17.70;94.80;;;;;;6089691;23;20584;-81
2021/09/24 09:28:32;;;;;;;6.47;4.50;;;17.90;94.60;;;;;;6090213;23;20608;-81
2021/09/24 09:31:39;;;;;;;4.30;3.90;;;17.90;95.20;;;;;;6089546;23;20972;-82
2021/09/24 09:34:34;;;;;;;4.80;4.30;;;17.70;94.30;;;;;;6088913;23;20589;-82
2021/09/24 09:37:19;;;;;;;4.63;4.27;;;17.60;95.10;;;;;;6088580;22;20591;-82
2021/09/24 09:40:05;;;;;;;4.90;4.37;;;17.60;95.10;;;;;;6089026;23;20616;-82
2021/09/24 09:42:43;;;;;;;3.80;3.50;;;17.60;95.30;;;;;;6089565;23;20586;-82
2021/09/24 09:45:17;;;;;;;4.37;3.73;;;17.60;95.70;;;;;;6088713;23;21075;-82
2021/09/24 09:47:56;;;;;;;4.60;4.20;;;17.50;95.20;;;;;;6088181;23;20614;-83
2021/09/24 09:50:32;;;;;;;6.00;4.20;;;17.40;95.10;;;;;;6088707;23;20590;-82
2021/09/24 09:53:10;;;;;;;4.40;4.00;;;17.40;94.70;;;;;;6088441;23;20599;-82
2021/09/24 09:55:53;;;;;;;4.73;4.33;;;17.60;94.70;;;;;;6088971;23;20638;-82
2021/09/24 09:58:31;;;;;;;5.70;4.70;;;17.50;94.40;;;;;;6088372;23;20597;-82
2021/09/24 10:01:12;;;;;;;6.67;5.07;;;17.50;94.90;;;;;;6088445;23;20586;-82
2021/09/24 10:03:44;;;;;;;5.17;4.20;;;17.70;94.60;;;;;;6088928;23;20579;-82
2021/09/24 10:06:23;;;;;;;4.27;3.60;;;17.90;93.80;;;;;;6087212;23;20586;-82
2021/09/24 10:08:58;;;;;;;4.40;4.00;;;18.10;94.20;;;;;;6088568;23;20648;-82
2021/09/24 10:11:35;;;;;;;5.57;5.07;;;18.10;93.50;;;;;;6088162;23;20613;-82
2021/09/24 10:14:15;;;;;;;5.00;4.60;;;18.20;94.20;;;;;;6087446;23;20531;-83
2021/09/24 10:16:49;;;;;;;5.30;4.47;;;18.40;93.00;;;;;;6088045;23;20586;-82
2021/09/24 10:19:25;;;;;;;5.20;4.10;;;18.50;94.00;;;;;;6086112;23;21421;-82
2021/09/24 10:21:57;;;;;;;4.40;4.00;;;18.40;92.90;;;;;;6086274;22;20591;-82
2021/09/24 10:24:30;;;;;;;5.23;4.73;;;18.50;93.50;;;;;;6087305;23;20666;-81
2021/09/24 10:27:05;;;;;;;5.50;5.00;;;18.70;93.00;;;;;;6087747;23;20587;-82
2021/09/24 10:29:44;;;;;;;4.90;3.90;;;18.90;92.20;;;;;;6042851;23;1097546;-82
2021/09/24 10:32:23;;;;;;;5.10;4.60;;;19.20;92.00;;;;;;6088916;23;20187;-81
2021/09/24 10:35:00;;;;;;;4.77;4.40;;;19.40;91.20;;;;;;6090098;23;20558;-82
2021/09/24 10:37:34;;;;;;;6.33;4.13;;;19.40;92.50;;;;;;6089717;22;21130;-81
2021/09/24 10:40:27;;;;;;;5.50;4.17;;;19.20;92.30;;;;;;6090074;23;20618;-81
2021/09/24 10:43:01;;;;;;;5.93;5.43;;;19.20;92.20;;;;;;6090006;23;20594;-82
2021/09/24 10:45:43;;;;;;;3.80;3.50;;;19.10;92.00;;;;;;6089666;22;20579;-81
2021/09/24 10:48:22;;;;;;;5.57;4.93;;;19.20;92.70;;;;;;6089152;23;20593;-82
2021/09/24 10:51:03;;;;;;;5.47;4.53;;;19.50;91.40;;;;;;6088052;23;20674;-82
2021/09/24 10:53:47;;;;;;;4.37;3.97;;;19.80;90.30;;;;;;6083795;23;20535;-81
2021/09/24 10:56:58;;;;;;;5.03;4.10;;;19.90;90.50;;;;;;6089921;23;20563;-82
2021/09/24 10:59:32;;;;;;;3.80;3.50;;;20.10;90.10;;;;;;6089667;23;20590;-82
2021/09/24 11:02:36;;;;;;;5.23;4.60;;;20.00;90.50;;;;;;6090428;23;21182;-81
2021/09/24 11:05:56;;;;;;;4.13;3.73;;;19.30;90.30;;;;;;6088450;23;20641;-82
2021/09/24 11:08:41;;;;;;;4.37;4.07;;;19.10;92.10;;;;;;6090273;23;20563;-82
2021/09/24 11:11:23;;;;;;;4.00;3.70;;;19.20;91.40;;;;;;6088518;23;20595;-83
2021/09/24 11:14:28;;;;;;;4.53;4.20;;;19.00;91.70;;;;;;6089033;23;20623;-81
2021/09/24 11:17:00;;;;;;;5.40;4.90;;;18.80;91.10;;;;;;6090005;23;20897;-82
2021/09/24 11:19:49;;;;;;;5.90;5.37;;;18.90;91.10;;;;;;6089255;23;20648;-82
2021/09/24 11:22:38;;;;;;;4.20;3.90;;;19.00;91.80;;;;;;6089590;23;20682;-82
2021/09/24 11:25:15;;;;;;;5.07;4.57;;;19.20;92.00;;;;;;6090057;23;20569;-82
2021/09/24 11:28:03;;;;;;;4.40;4.00;;;19.40;90.40;;;;;;6087891;23;20701;-82
2021/09/24 11:30:49;;;;;;;4.07;3.77;;;19.50;91.70;;;;;;6088531;23;20585;-81
2021/09/24 11:33:40;;;;;;;3.87;3.57;;;19.50;89.80;;;;;;6088603;23;20563;-83
2021/09/24 11:36:11;;;;;;;5.20;4.60;;;19.50;90.90;;;;;;6089170;23;20601;-82
2021/09/24 11:39:02;;;;;;;4.70;4.30;;;20.10;88.90;;;;;;6089847;23;20586;-82
2021/09/24 11:42:06;;;;;;;3.90;3.60;;;20.20;90.00;;;;;;6090070;23;20552;-83
2021/09/24 11:44:47;;;;;;;5.30;4.10;;;20.30;88.30;;;;;;6090117;22;21062;-82
2021/09/24 11:47:25;;;;;;;4.20;3.90;;;20.20;90.40;;;;;;6089599;23;20537;-83
2021/09/24 11:50:09;;;;;;;5.07;4.57;;;20.00;90.70;;;;;;6090010;23;21183;-82
2021/09/24 11:52:51;;;;;;;3.40;3.10;;;19.80;90.00;;;;;;6089809;23;21179;-82
2021/09/24 11:55:25;;;;;;;4.70;4.30;;;19.90;89.50;;;;;;6090444;23;20608;-83
2021/09/24 11:58:14;;;;;;;4.27;3.87;;;20.30;87.50;;;;;;6089471;23;20599;-82
2021/09/24 12:00:57;;;;;;;4.67;4.27;;;20.40;85.90;;;;;;6090409;23;20541;-82
2021/09/24 12:03:34;;;;;;;5.10;4.70;;;20.40;85.10;;;;;;6089595;23;21129;-82
2021/09/24 12:06:10;;;;;;;4.27;3.97;;;20.30;83.60;;;;;;6088113;23;20579;-82
2021/09/24 12:08:53;;;;;;;4.00;3.70;;;20.30;85.40;;;;;;6089630;23;20582;-83
2021/09/24 12:11:25;;;;;;;5.43;4.23;;;20.30;82.80;;;;;;6088493;23;21015;-82
2021/09/24 12:13:58;;;;;;;4.37;4.00;;;20.30;83.50;;;;;;6087868;23;20686;-83
2021/09/24 12:16:41;;;;;;;3.77;3.47;;;20.30;82.30;;;;;;6086786;23;20628;-82
2021/09/24 12:19:15;;;;;;;5.07;4.67;;;20.30;85.10;;;;;;6087538;23;20588;-83
2021/09/24 12:21:49;;;;;;;4.93;4.50;;;20.30;86.20;;;;;;6087455;23;20557;-82
2021/09/24 12:24:29;;;;;;;3.90;3.60;;;20.20;83.10;;;;;;6089738;23;20563;-83
2021/09/24 12:27:10;;;;;;;4.53;4.23;;;20.20;85.30;;;;;;6088291;23;20596;-83
2021/09/24 12:29:49;;;;;;;4.30;4.00;;;20.30;83.50;;;;;;6089466;23;20784;-82
2021/09/24 12:32:29;;;;;;;4.00;3.70;;;20.50;83.70;;;;;;6089835;23;20565;-83
2021/09/24 12:35:06;;;;;;;6.87;4.17;;;20.70;81.40;;;;;;6089647;23;20584;-83
2021/09/24 12:37:40;;;;;;;5.13;4.63;;;20.60;83.90;;;;;;6089714;23;20560;-82
2021/09/24 12:40:18;;;;;;;6.50;6.00;;;20.60;83.40;;;;;;6089583;23;20601;-82
2021/09/24 12:42:56;;;;;;;4.60;4.07;;;20.80;82.60;;;;;;6089729;23;20603;-83
2021/09/24 12:45:31;;;;;;;4.90;4.50;;;20.80;82.10;;;;;;6089980;23;21066;-83
2021/09/24 12:48:08;;;;;;;4.33;4.03;;;20.60;83.00;;;;;;6089586;23;20596;-82
2021/09/24 12:50:45;;;;;;;5.20;4.33;;;20.70;83.40;;;;;;6090058;23;20553;-83
2021/09/24 12:53:19;;;;;;;4.63;4.23;;;20.70;82.80;;;;;;6088942;23;20621;-83
2021/09/24 12:56:02;;;;;;;6.97;5.00;;;20.80;84.40;;;;;;6088934;23;20580;-84
2021/09/24 12:58:37;;;;;;;4.47;4.07;;;21.00;82.40;;;;;;6089550;23;20560;-83
2021/09/24 13:01:15;;;;;;;5.33;4.70;;;21.20;80.00;;;;;;6089174;23;20581;-83
2021/09/24 13:03:46;;;;;;;4.30;3.90;;;21.30;79.70;;;;;;6089322;23;20585;-83
2021/09/24 13:06:25;;;;;;;5.03;4.30;;;21.20;80.60;;;;;;6089208;23;20562;-82
2021/09/24 13:09:06;;;;;;;5.83;3.97;;;21.20;79.90;;;;;;6089232;23;21188;-82
2021/09/24 13:11:37;;;;;;;4.47;4.07;;;21.30;78.80;;;;;;6090338;23;20650;-81
2021/09/24 13:14:10;;;;;;;4.77;4.37;;;21.30;80.20;;;;;;6090773;23;20996;-84
2021/09/24 13:16:50;;;;;;;5.30;4.90;;;21.20;79.90;;;;;;6089714;23;20593;-82
2021/09/24 13:19:35;;;;;;;5.67;5.20;;;21.30;81.80;;;;;;6089047;23;20566;-82
2021/09/24 13:22:10;;;;;;;5.33;4.83;;;21.30;80.80;;;;;;6087724;23;20631;-83
2021/09/24 13:24:39;;;;;;;5.03;4.63;;;21.40;79.50;;;;;;6090141;23;20652;-84
2021/09/24 13:27:10;;;;;;;5.17;4.83;;;21.20;80.60;;;;;;6088540;23;21187;-83
2021/09/24 13:29:53;;;;;;;5.10;4.70;;;21.20;77.30;;;;;;6089572;23;20622;-83
2021/09/24 13:32:24;;;;;;;7.10;5.40;;;21.20;80.10;;;;;;6089937;23;20617;-84
2021/09/24 13:34:59;;;;;;;7.93;4.80;;;21.40;79.40;;;;;;6090098;23;20588;-82
2021/09/24 13:37:38;;;;;;;5.00;4.50;;;21.50;79.70;;;;;;6087357;23;20620;-82
2021/09/24 13:40:15;;;;;;;5.30;4.80;;;21.60;80.20;;;;;;6089734;23;20588;-83
2021/09/24 13:42:47;;;;;;;4.67;4.27;;;21.50;81.00;;;;;;6089863;23;20651;-83
2021/09/24 13:45:22;;;;;;;5.93;5.10;;;21.50;80.10;;;;;;6089956;23;20536;-82
2021/09/24 13:48:02;;;;;;;5.07;4.60;;;21.60;82.20;;;;;;6088184;23;21156;-83
2021/09/24 13:50:39;;;;;;;5.40;5.00;;;21.60;78.60;;;;;;6090128;23;20580;-83
2021/09/24 13:53:20;;;;;;;4.10;3.80;;;21.70;79.60;;;;;;6089766;23;20672;-83
2021/09/24 13:55:53;;;;;;;5.27;4.87;;;21.80;79.00;;;;;;6089627;23;20545;-83
2021/09/24 13:58:25;;;;;;;6.70;4.70;;;21.80;79.10;;;;;;6089290;23;20658;-83
2021/09/24 14:00:59;;;;;;;5.30;4.90;;;21.80;78.60;;;;;;6089829;23;20616;-82
2021/09/24 14:03:32;;;;;;;6.73;5.73;;;21.90;78.80;;;;;;6089555;23;20918;-82
2021/09/24 14:06:04;;;;;;;4.23;3.90;;;22.00;78.40;;;;;;6089719;23;20597;-83
2021/09/24 14:08:39;;;;;;;5.90;5.37;;;22.20;78.30;;;;;;6088848;23;20710;-82